Time;durP1;ratioP1;P1;durP2;ratioP2;P2;SDS_P1;SDS_P2;PMS_P1;PMS_P2;Temp;Humidity;BMP_temperature;BMP_pressure;BME280_temperature;BME280_humidity;BME280_pressure;Samples;Min_cycle;Max_cycle;Signal;HPM_P1;HPM_P2
2022/05/11 00:01:37;;;;;;;17.50;15.80;;;;;;;18.09;86.67;98210.72;4132339;28;20627;-83
2022/05/11 00:03:41;;;;;;;17.60;15.90;;;;;;;18.03;86.62;98220.03;4131746;28;21493;-83
2022/05/11 00:05:47;;;;;;;18.07;16.30;;;;;;;17.99;86.73;98209.94;4113355;28;20678;-83
2022/05/11 00:07:51;;;;;;;16.53;14.93;;;;;;;17.95;87.02;98206.75;4128801;28;20632;-83
2022/05/11 00:09:55;;;;;;;18.03;16.33;;;;;;;17.92;88.20;98211.50;4130239;28;21296;-83
2022/05/11 00:11:58;;;;;;;17.70;16.00;;;;;;;17.88;87.91;98206.69;4124831;28;21346;-82
2022/05/11 00:14:02;;;;;;;17.73;15.93;;;;;;;17.86;87.51;98212.09;4128609;28;20640;-83
2022/05/11 00:16:05;;;;;;;17.80;16.00;;;;;;;17.84;87.03;98205.28;4130294;28;20641;-83
2022/05/11 00:18:10;;;;;;;18.00;16.20;;;;;;;17.80;87.61;98207.41;4126288;28;20855;-83
2022/05/11 00:20:14;;;;;;;18.60;16.70;;;;;;;17.76;86.10;98208.66;4127944;28;20635;-83
2022/05/11 00:22:18;;;;;;;17.70;16.00;;;;;;;17.74;87.68;98209.78;4128588;28;21229;-83
2022/05/11 00:24:22;;;;;;;17.20;15.60;;;;;;;17.66;87.98;98196.50;4133376;28;20670;-83
2022/05/11 00:26:26;;;;;;;18.23;16.50;;;;;;;17.60;87.43;98203.16;4126247;28;20654;-83
2022/05/11 00:28:29;;;;;;;17.83;16.13;;;;;;;17.53;87.51;98191.53;4143421;28;20683;-82
2022/05/11 00:30:33;;;;;;;18.07;16.27;;;;;;;17.51;88.27;98201.41;4126997;28;20639;-82
2022/05/11 00:32:36;;;;;;;17.87;16.03;;;;;;;17.50;87.47;98194.47;4139210;28;20654;-82
2022/05/11 00:34:40;;;;;;;18.77;16.77;;;;;;;17.46;87.97;98202.81;4129762;28;20677;-83
2022/05/11 00:36:43;;;;;;;23.27;20.57;;;;;;;17.45;87.28;98202.97;4112091;28;20703;-83
2022/05/11 00:38:47;;;;;;;17.73;15.93;;;;;;;17.42;88.62;98208.53;4138388;28;20618;-83
2022/05/11 00:40:54;;;;;;;18.83;16.93;;;;;;;17.41;87.75;98191.03;4126252;28;20718;-83
2022/05/11 00:42:57;;;;;;;17.70;15.80;;;;;;;17.42;87.49;98208.53;4124596;28;20640;-82
2022/05/11 00:45:01;;;;;;;17.90;16.10;;;;;;;17.42;87.56;98195.34;4114291;28;21246;-82
2022/05/11 00:47:08;;;;;;;18.20;16.37;;;;;;;17.41;87.75;98191.03;4142637;28;21231;-83
2022/05/11 00:51:40;;;;;;;17.83;16.00;;;;;;;17.40;88.36;98199.94;4125274;28;20643;-83
2022/05/11 00:53:46;;;;;;;18.93;17.10;;;;;;;17.39;88.33;98199.09;4142798;28;20630;-82
2022/05/11 00:55:53;;;;;;;19.60;15.50;;;;;;;17.38;87.25;98193.94;4137842;28;21199;-82
2022/05/11 00:57:59;;;;;;;18.03;16.33;;;;;;;17.37;88.21;98187.84;4144284;28;20639;-82
2022/05/11 01:00:04;;;;;;;18.23;16.30;;;;;;;17.35;87.32;98183.69;4144808;28;20737;-83
2022/05/11 01:02:08;;;;;;;18.80;16.83;;;;;;;17.31;87.63;98191.06;4142171;28;20666;-83
2022/05/11 01:04:13;;;;;;;18.33;16.43;;;;;;;17.30;87.96;98194.66;4124859;28;21087;-82
2022/05/11 01:06:18;;;;;;;19.43;17.27;;;;;;;17.26;88.57;98188.03;4124619;28;20627;-82
2022/05/11 01:08:22;;;;;;;18.50;16.50;;;;;;;17.26;88.29;98193.31;4111244;28;20646;-83
2022/05/11 01:10:30;;;;;;;17.13;15.53;;;;;;;17.22;87.44;98185.84;4109071;28;20683;-83
2022/05/11 01:12:39;;;;;;;17.57;15.87;;;;;;;17.19;87.89;98194.00;4108381;28;20663;-83
2022/05/11 01:14:45;;;;;;;19.23;16.80;;;;;;;17.14;88.83;98189.16;4110938;28;20671;-83
2022/05/11 01:16:49;;;;;;;17.03;15.43;;;;;;;17.10;88.25;98192.22;4107210;28;20719;-82
2022/05/11 01:18:52;;;;;;;18.50;16.70;;;;;;;17.05;87.14;98197.91;4106973;28;20644;-83
2022/05/11 01:20:58;;;;;;;18.97;17.03;;;;;;;17.04;87.31;98185.69;4109600;28;20640;-83
2022/05/11 01:23:04;;;;;;;18.27;16.37;;;;;;;17.00;87.01;98188.75;4141509;28;21379;-82
2022/05/11 01:25:11;;;;;;;18.20;16.47;;;;;;;16.98;88.33;98181.97;4143303;28;21031;-83
2022/05/11 01:27:30;;;;;;;18.73;16.93;;;;;;;16.94;87.83;98181.41;4110949;28;21215;-83
2022/05/11 01:29:33;;;;;;;18.50;16.50;;;;;;;16.91;87.90;98180.88;4127626;28;20663;-82
2022/05/11 01:31:36;;;;;;;18.30;16.50;;;;;;;16.89;88.49;98188.09;4140436;28;20637;-83
2022/05/11 01:33:43;;;;;;;18.40;16.60;;;;;;;16.86;88.66;98177.84;4131390;28;20657;-82
2022/05/11 01:35:56;;;;;;;20.77;17.33;;;;;;;16.86;88.08;98178.66;4143393;28;20626;-82
2022/05/11 01:38:16;;;;;;;20.00;18.00;;;;;;;16.82;88.65;98179.06;4123520;28;20631;-83
2022/05/11 01:40:21;;;;;;;18.70;16.80;;;;;;;16.80;87.87;98173.13;4126277;28;21042;-82
2022/05/11 01:42:24;;;;;;;18.87;17.03;;;;;;;16.76;88.24;98179.63;4133223;28;21044;-82
2022/05/11 01:44:27;;;;;;;18.80;17.00;;;;;;;16.72;87.68;98181.72;4129404;28;20690;-82
2022/05/11 01:46:31;;;;;;;18.53;16.67;;;;;;;16.68;89.32;98187.41;4109259;28;21216;-82
2022/05/11 01:48:37;;;;;;;18.10;16.30;;;;;;;16.62;88.34;98178.25;4120679;28;20637;-82
2022/05/11 01:50:40;;;;;;;19.83;17.07;;;;;;;16.58;89.71;98182.16;4126158;28;20742;-82
2022/05/11 01:52:44;;;;;;;19.40;17.30;;;;;;;16.55;87.81;98179.81;4139427;28;21237;-82
2022/05/11 01:54:47;;;;;;;19.70;17.80;;;;;;;16.53;89.94;98192.25;4128464;28;20698;-82
2022/05/11 01:56:52;;;;;;;20.60;17.87;;;;;;;16.51;89.52;98188.94;4126276;28;20669;-83
2022/05/11 01:58:56;;;;;;;19.60;17.70;;;;;;;16.48;87.99;98188.41;4127962;28;20631;-82
2022/05/11 02:01:00;;;;;;;18.23;16.33;;;;;;;16.49;88.58;98186.59;4144026;28;23585;-83
2022/05/11 02:03:04;;;;;;;18.50;16.60;;;;;;;16.45;87.95;98193.09;4139984;28;21160;-82
2022/05/11 02:09:49;;;;;;;19.80;17.70;;;;;;;16.40;88.49;98176.88;4124662;28;21225;-82
2022/05/11 02:11:54;;;;;;;18.80;16.87;;;;;;;16.40;89.88;98174.25;4128257;28;20792;-82
2022/05/11 02:13:58;;;;;;;19.53;17.30;;;;;;;16.36;89.42;98168.44;4122184;28;21086;-82
2022/05/11 02:16:01;;;;;;;19.57;17.57;;;;;;;16.35;89.34;98177.28;4122382;28;20722;-82
2022/05/11 02:18:05;;;;;;;19.47;17.20;;;;;;;16.28;88.74;98175.34;4109899;28;20655;-82
2022/05/11 02:20:10;;;;;;;19.80;17.73;;;;;;;16.20;88.41;98178.63;4122793;28;20667;-82
2022/05/11 02:22:14;;;;;;;19.47;17.37;;;;;;;16.18;88.05;98180.56;4124410;28;20667;-82
2022/05/11 02:24:18;;;;;;;20.63;18.43;;;;;;;16.17;87.84;98180.72;4143640;28;21208;-82
2022/05/11 02:26:21;;;;;;;19.67;17.50;;;;;;;16.16;88.13;98179.91;4120868;28;20998;-82
2022/05/11 02:28:26;;;;;;;18.60;16.70;;;;;;;16.16;90.15;98176.41;4122715;28;20743;-82
2022/05/11 02:30:31;;;;;;;18.90;16.93;;;;;;;16.13;88.15;98174.03;4108151;28;20695;-82
2022/05/11 02:32:35;;;;;;;19.10;17.20;;;;;;;16.11;88.48;98173.38;4123417;28;20742;-82
2022/05/11 02:36:59;;;;;;;19.37;17.37;;;;;;;16.11;88.83;98170.72;4123065;28;20738;-82
2022/05/11 02:39:02;;;;;;;19.73;17.73;;;;;;;16.13;89.04;98166.16;4127275;28;20635;-82
2022/05/11 02:41:06;;;;;;;19.30;17.30;;;;;;;16.13;89.99;98171.41;4123541;28;20643;-82
2022/05/11 02:43:09;;;;;;;19.20;17.33;;;;;;;16.12;88.63;98175.03;4125127;28;20705;-82
2022/05/11 02:45:15;;;;;;;20.70;18.53;;;;;;;16.13;89.58;98176.69;4125154;28;21213;-82
2022/05/11 02:47:18;;;;;;;19.53;17.60;;;;;;;16.11;88.90;98171.56;4119408;28;20738;-83
2022/05/11 02:49:22;;;;;;;19.87;17.90;;;;;;;16.07;89.48;98172.81;4127415;28;20643;-82
2022/05/11 02:51:26;;;;;;;19.57;17.10;;;;;;;16.04;90.51;98166.97;4110470;28;20639;-82
2022/05/11 02:53:31;;;;;;;20.17;18.17;;;;;;;16.02;88.68;98176.81;4125242;28;20745;-82
2022/05/11 02:55:35;;;;;;;19.37;17.47;;;;;;;15.98;89.60;98170.16;4123658;28;20671;-82
2022/05/11 02:57:38;;;;;;;20.07;17.97;;;;;;;15.97;88.47;98171.13;4144205;28;20638;-82
2022/05/11 02:59:42;;;;;;;19.27;17.27;;;;;;;15.95;90.41;98172.22;4149081;28;20741;-82
2022/05/11 03:01:51;;;;;;;19.00;17.00;;;;;;;15.92;90.10;98169.88;4106982;28;20632;-82
2022/05/11 03:03:55;;;;;;;19.60;17.60;;;;;;;15.89;89.13;98168.34;4110581;28;20672;-82
2022/05/11 03:05:58;;;;;;;19.10;17.10;;;;;;;15.87;88.58;98170.28;4127143;28;20780;-82
2022/05/11 03:08:01;;;;;;;18.73;16.73;;;;;;;15.85;88.83;98166.94;4128488;28;20635;-82
2022/05/11 03:10:07;;;;;;;19.57;17.57;;;;;;;15.81;89.94;98162.91;4125310;28;20674;-82
2022/05/11 03:12:11;;;;;;;18.70;16.90;;;;;;;15.80;90.77;98163.06;4125153;28;20626;-82
2022/05/11 03:14:15;;;;;;;17.77;15.87;;;;;;;15.79;88.92;98164.84;4124120;28;20766;-82
2022/05/11 03:16:18;;;;;;;21.07;17.10;;;;;;;15.75;89.97;98163.44;4125242;28;20635;-82
2022/05/11 03:18:23;;;;;;;20.23;17.00;;;;;;;15.73;90.84;98157.50;4123026;28;20623;-82
2022/05/11 03:20:29;;;;;;;19.20;17.20;;;;;;;15.71;90.46;98163.84;4129414;28;21241;-82
2022/05/11 03:22:33;;;;;;;19.73;17.67;;;;;;;15.68;89.81;98157.09;4122872;28;20635;-82
2022/05/11 03:24:36;;;;;;;19.53;17.53;;;;;;;15.66;89.09;98159.00;4127576;28;20670;-82
2022/05/11 03:26:40;;;;;;;20.13;17.63;;;;;;;15.64;90.08;98163.56;4141744;28;20661;-82
2022/05/11 03:28:43;;;;;;;19.60;17.50;;;;;;;15.65;89.27;98164.38;4129232;28;21437;-82
2022/05/11 03:30:47;;;;;;;25.47;17.90;;;;;;;15.63;89.51;98166.34;4124982;28;22499;-82
2022/05/11 03:35:15;;;;;;;19.40;17.40;;;;;;;15.57;89.17;98159.81;4111536;28;20700;-82
2022/05/11 03:37:20;;;;;;;20.20;18.07;;;;;;;15.57;90.21;98170.34;4131756;28;20642;-82
2022/05/11 03:39:23;;;;;;;20.77;17.87;;;;;;;15.55;89.83;98163.53;4123330;28;21221;-82
2022/05/11 03:41:26;;;;;;;19.57;17.33;;;;;;;15.54;90.16;98158.41;4141008;28;20626;-82
2022/05/11 03:43:30;;;;;;;19.67;17.57;;;;;;;15.54;90.04;98155.78;4141145;28;20761;-82
2022/05/11 03:45:34;;;;;;;19.33;17.43;;;;;;;15.51;89.38;98151.63;4127452;28;20635;-82
2022/05/11 03:47:37;;;;;;;21.83;18.27;;;;;;;15.48;90.62;98162.41;4142341;28;20626;-82
2022/05/11 03:49:40;;;;;;;20.27;17.90;;;;;;;15.48;89.86;98153.69;4127116;28;20644;-82
2022/05/11 03:51:45;;;;;;;18.97;16.97;;;;;;;15.47;90.67;98157.28;4125491;28;20663;-82
2022/05/11 03:53:48;;;;;;;20.53;18.20;;;;;;;15.46;90.25;98151.19;4128874;28;20785;-82
2022/05/11 03:55:52;;;;;;;20.20;18.20;;;;;;;15.45;89.82;98160.03;4127260;28;20734;-82
2022/05/11 03:57:55;;;;;;;20.60;18.40;;;;;;;15.44;90.09;98154.91;4113055;28;20644;-82
2022/05/11 03:59:58;;;;;;;19.27;17.10;;;;;;;15.44;89.64;98160.16;4111450;28;20635;-82
2022/05/11 04:02:02;;;;;;;19.50;17.40;;;;;;;15.42;90.79;98160.31;4142187;28;20634;-82
2022/05/11 04:04:06;;;;;;;20.17;18.07;;;;;;;15.46;89.26;98168.78;4129316;28;20665;-82
2022/05/11 04:06:09;;;;;;;19.67;17.77;;;;;;;15.46;90.30;98155.63;4126344;28;21173;-82
2022/05/11 04:08:14;;;;;;;20.87;18.30;;;;;;;15.45;90.66;98164.47;4106772;28;20633;-82
2022/05/11 04:10:19;;;;;;;21.10;17.90;;;;;;;15.43;89.74;98167.22;4123905;28;20670;-82
2022/05/11 04:12:24;;;;;;;19.73;17.67;;;;;;;15.43;89.37;98163.78;4127372;28;20642;-82
2022/05/11 04:14:27;;;;;;;19.90;17.37;;;;;;;15.44;90.21;98160.16;4127332;28;20666;-82
2022/05/11 04:16:30;;;;;;;22.23;18.43;;;;;;;15.45;91.13;98161.84;4145692;28;20638;-82
2022/05/11 04:18:34;;;;;;;19.43;17.43;;;;;;;15.44;90.96;98158.41;4142930;28;20705;-82
2022/05/11 04:20:38;;;;;;;20.33;17.77;;;;;;;15.46;90.50;98163.53;4123324;28;20712;-82
2022/05/11 04:22:41;;;;;;;21.13;18.83;;;;;;;15.47;90.78;98160.75;4133304;28;20722;-82
2022/05/11 04:24:46;;;;;;;19.93;17.77;;;;;;;15.49;90.41;98168.50;4125165;28;20630;-82
2022/05/11 04:26:49;;;;;;;21.27;17.93;;;;;;;15.51;90.95;98167.41;4137166;28;20635;-82
2022/05/11 04:28:53;;;;;;;22.70;19.00;;;;;;;15.54;91.31;98163.69;4124664;28;20631;-82
2022/05/11 04:31:01;;;;;;;26.33;18.33;;;;;;;15.55;90.27;98156.47;4127079;28;21210;-82
2022/05/11 04:33:05;;;;;;;21.80;17.80;;;;;;;15.56;90.39;98165.22;4129406;28;21207;-82
2022/05/11 04:35:09;;;;;;;20.87;18.60;;;;;;;15.57;90.16;98169.50;4129797;28;20675;-82
2022/05/11 04:37:14;;;;;;;21.30;19.00;;;;;;;15.61;90.30;98163.00;4127525;28;20721;-82
2022/05/11 04:39:17;;;;;;;19.93;17.87;;;;;;;15.64;89.41;98168.00;4124976;28;20667;-84
2022/05/11 04:41:22;;;;;;;22.63;20.27;;;;;;;15.68;89.70;98170.22;4125891;28;20666;-82
2022/05/11 04:43:28;;;;;;;20.27;18.13;;;;;;;15.71;91.23;98163.84;4140588;28;20642;-82
2022/05/11 04:45:31;;;;;;;21.37;19.27;;;;;;;15.73;90.32;98168.03;4105943;28;20633;-82
2022/05/11 04:47:34;;;;;;;25.40;19.10;;;;;;;15.75;90.22;98170.53;4133359;28;20620;-82
2022/05/11 04:49:38;;;;;;;22.47;20.13;;;;;;;15.76;91.24;98173.03;4132605;28;21264;-82
2022/05/11 04:51:41;;;;;;;22.30;20.00;;;;;;;15.80;90.35;98169.16;4128218;28;20694;-82
2022/05/11 04:53:45;;;;;;;21.77;19.57;;;;;;;15.83;89.75;98168.03;4127411;28;20635;-82
2022/05/11 04:55:49;;;;;;;21.00;18.80;;;;;;;15.86;90.64;98181.78;4124667;28;21242;-83
2022/05/11 04:57:54;;;;;;;23.23;19.03;;;;;;;15.91;89.73;98176.94;4113721;28;20808;-83
2022/05/11 04:59:57;;;;;;;21.93;19.63;;;;;;;15.92;91.64;98177.75;4109754;28;21102;-83
2022/05/11 05:02:01;;;;;;;22.83;20.43;;;;;;;15.95;91.02;98167.81;4126674;28;20643;-83
2022/05/11 05:04:05;;;;;;;21.37;19.17;;;;;;;15.97;88.95;98176.41;4143593;28;20670;-83
2022/05/11 05:06:08;;;;;;;21.67;19.37;;;;;;;15.98;89.59;98178.03;4132475;28;20642;-84
2022/05/11 05:08:12;;;;;;;22.23;19.90;;;;;;;16.00;90.32;98181.38;4136235;28;21243;-83
2022/05/11 05:10:19;;;;;;;21.93;19.63;;;;;;;16.03;88.66;98189.00;4130113;28;20725;-83
2022/05/11 05:12:24;;;;;;;21.47;19.03;;;;;;;16.05;90.79;98189.69;4122117;28;20730;-83
2022/05/11 05:14:29;;;;;;;24.77;18.70;;;;;;;16.07;89.93;98188.59;4106695;28;20728;-84
2022/05/11 05:16:32;;;;;;;21.50;19.27;;;;;;;16.11;89.65;98183.88;4141720;28;20631;-83
2022/05/11 05:18:36;;;;;;;21.50;19.27;;;;;;;16.13;88.58;98187.22;4106391;28;20632;-82
2022/05/11 05:20:39;;;;;;;21.27;19.13;;;;;;;16.15;88.10;98182.66;4125030;28;20670;-82
2022/05/11 05:22:43;;;;;;;22.67;20.07;;;;;;;16.17;89.92;98189.44;4123994;28;20706;-82
2022/05/11 05:24:47;;;;;;;24.50;19.70;;;;;;;16.22;89.70;98182.00;4143076;28;20734;-82
2022/05/11 05:26:50;;;;;;;21.60;19.30;;;;;;;16.30;89.00;98189.22;4128689;28;21056;-82
2022/05/11 05:31:18;;;;;;;22.53;20.20;;;;;;;16.61;88.42;98194.19;4132604;28;21296;-82
2022/05/11 05:33:22;;;;;;;20.67;18.67;;;;;;;16.83;88.20;98192.09;4134882;28;20627;-82
2022/05/11 05:35:25;;;;;;;21.40;19.17;;;;;;;17.10;85.50;98198.31;4129226;28;20652;-83
2022/05/11 05:37:31;;;;;;;23.80;18.90;;;;;;;17.30;86.27;98204.41;4131337;28;20655;-84
2022/05/11 05:39:34;;;;;;;22.57;19.93;;;;;;;17.46;85.37;98194.09;4135595;28;20631;-83
2022/05/11 05:41:37;;;;;;;20.50;18.50;;;;;;;17.68;85.82;98199.81;4130731;28;20643;-83
2022/05/11 05:43:41;;;;;;;20.80;18.70;;;;;;;17.93;85.33;98203.41;4145392;28;20623;-84
2022/05/11 05:45:48;;;;;;;19.93;17.83;;;;;;;18.21;83.86;98197.19;4131620;28;21087;-84
2022/05/11 05:47:53;;;;;;;20.80;18.57;;;;;;;18.48;83.00;98208.53;4148348;28;20725;-85
2022/05/11 05:49:56;;;;;;;20.83;18.63;;;;;;;18.75;83.41;98210.25;4115936;28;20637;-85
2022/05/11 05:52:01;;;;;;;19.97;17.93;;;;;;;19.00;83.10;98211.16;4141663;28;20670;-85
2022/05/11 05:54:04;;;;;;;20.80;18.70;;;;;;;19.24;81.19;98207.88;4145824;28;20630;-85
2022/05/11 05:56:08;;;;;;;24.33;19.57;;;;;;;19.47;83.44;98205.38;4129662;28;20658;-85
2022/05/11 05:58:12;;;;;;;23.30;18.50;;;;;;;19.73;83.82;98208.00;4124264;28;20624;-83
2022/05/11 06:00:16;;;;;;;20.60;18.57;;;;;;;19.99;82.34;98207.00;4122042;28;20994;-84
2022/05/11 06:02:19;;;;;;;20.97;18.73;;;;;;;20.25;82.31;98205.09;4129328;28;20624;-84
2022/05/11 06:04:24;;;;;;;21.13;18.27;;;;;;;20.48;80.60;98214.94;4126598;28;20631;-83
2022/05/11 06:06:28;;;;;;;18.13;16.53;;;;;;;20.69;78.74;98212.66;4111864;28;20731;-84
2022/05/11 06:08:31;;;;;;;20.57;18.43;;;;;;;20.96;78.35;98211.34;4125150;28;20644;-84
2022/05/11 06:10:39;;;;;;;19.47;17.50;;;;;;;21.20;76.80;98207.84;4109119;28;21051;-84
2022/05/11 06:12:43;;;;;;;18.90;17.20;;;;;;;21.43;77.07;98209.66;4129503;28;20623;-83
2022/05/11 06:14:46;;;;;;;19.70;17.90;;;;;;;21.71;76.48;98209.13;4141570;28;20650;-83
2022/05/11 06:16:49;;;;;;;18.73;16.93;;;;;;;21.97;75.81;98209.72;4143206;28;20674;-84
2022/05/11 06:18:53;;;;;;;18.40;16.70;;;;;;;22.22;74.62;98204.13;4137403;28;21066;-84
2022/05/11 06:20:58;;;;;;;19.07;17.17;;;;;;;22.49;74.18;98211.63;4113879;28;20720;-84
2022/05/11 06:23:03;;;;;;;17.53;15.87;;;;;;;22.71;73.79;98216.16;4129415;28;21214;-84
2022/05/11 06:25:07;;;;;;;18.47;16.77;;;;;;;22.93;74.18;98216.16;4138769;28;20627;-85
2022/05/11 06:27:15;;;;;;;17.30;15.60;;;;;;;23.16;73.74;98217.00;4122724;28;20635;-86
2022/05/11 06:29:19;;;;;;;17.10;15.50;;;;;;;23.35;72.11;98212.81;4137050;28;20626;-84
2022/05/11 06:31:23;;;;;;;17.33;15.53;;;;;;;23.48;71.45;98213.00;4140738;28;20639;-84
2022/05/11 06:33:26;;;;;;;17.50;15.90;;;;;;;23.66;71.92;98220.69;4106270;28;20640;-84
2022/05/11 06:35:30;;;;;;;17.43;15.87;;;;;;;23.84;72.07;98222.78;4119737;28;20758;-84
2022/05/11 06:37:35;;;;;;;16.93;15.43;;;;;;;24.05;73.28;98216.75;4140209;28;20749;-84
2022/05/11 06:39:38;;;;;;;15.73;14.20;;;;;;;24.22;71.56;98211.84;4140721;28;20642;-84
2022/05/11 06:41:41;;;;;;;16.07;14.60;;;;;;;24.42;71.26;98212.13;4142570;28;21221;-84
2022/05/11 06:43:45;;;;;;;14.37;12.97;;;;;;;24.63;71.18;98216.47;4128798;28;21250;-84
2022/05/11 06:45:48;;;;;;;14.07;11.30;;;;;;;24.89;66.29;98214.06;4121431;28;20680;-83
2022/05/11 06:47:53;;;;;;;12.03;11.00;;;;;;;25.14;68.28;98218.06;4140410;28;20638;-84
2022/05/11 06:49:56;;;;;;;12.53;11.43;;;;;;;25.37;68.12;98214.13;4129104;28;20642;-84
2022/05/11 06:52:00;;;;;;;12.53;11.37;;;;;;;25.62;66.86;98210.03;4112254;28;20696;-84
2022/05/11 07:01:07;;;;;;;10.03;8.53;;;;;;;26.08;64.90;98207.47;4144939;28;20645;-84
2022/05/11 07:03:10;;;;;;;9.53;8.63;;;;;;;26.32;64.11;98206.16;4127249;28;20691;-84
2022/05/11 07:05:17;;;;;;;10.07;9.07;;;;;;;26.53;64.30;98209.50;4127984;28;20635;-85
2022/05/11 07:07:20;;;;;;;8.80;8.00;;;;;;;26.66;62.80;98212.25;4126631;28;20620;-85
2022/05/11 07:09:26;;;;;;;8.80;8.00;;;;;;;26.80;62.56;98211.25;4144607;28;20626;-84
2022/05/11 07:13:52;;;;;;;9.77;8.10;;;;;;;27.19;62.15;98210.28;4112224;28;21309;-85
2022/05/11 07:15:56;;;;;;;9.50;8.60;;;;;;;27.23;59.36;98208.06;4119822;28;20640;-84
2022/05/11 07:18:01;;;;;;;10.83;9.83;;;;;;;27.30;61.55;98203.50;4126720;28;20754;-84
2022/05/11 07:20:07;;;;;;;15.47;13.97;;;;;;;27.44;63.38;98211.34;4141840;28;21217;-84
2022/05/11 07:22:10;;;;;;;8.60;7.37;;;;;;;27.60;61.50;98210.94;4124101;28;20998;-84
2022/05/11 07:24:14;;;;;;;8.20;7.50;;;;;;;27.74;62.27;98208.03;4120711;28;20631;-84
2022/05/11 07:26:18;;;;;;;7.80;7.10;;;;;;;27.87;60.60;98201.81;4124875;28;21234;-84
2022/05/11 07:28:22;;;;;;;7.57;6.87;;;;;;;27.89;60.28;98202.44;4123262;28;20818;-84
2022/05/11 07:30:27;;;;;;;7.40;6.80;;;;;;;27.84;58.72;98197.69;4106700;28;21114;-84
2022/05/11 07:32:38;;;;;;;7.33;6.73;;;;;;;27.98;58.01;98195.81;4127368;28;20639;-84
2022/05/11 07:34:41;;;;;;;7.17;6.47;;;;;;;28.08;58.33;98194.34;4108626;28;20623;-84
2022/05/11 07:36:44;;;;;;;7.90;7.10;;;;;;;27.98;58.24;98198.50;4106742;28;20687;-84
2022/05/11 07:38:48;;;;;;;8.13;7.33;;;;;;;27.99;57.75;98192.91;4129579;28;20647;-84
2022/05/11 07:40:51;;;;;;;7.40;6.80;;;;;;;27.90;57.21;98194.16;4142874;28;20634;-84
2022/05/11 07:42:56;;;;;;;7.00;6.40;;;;;;;27.89;55.95;98183.66;4127170;28;20673;-84
2022/05/11 07:44:59;;;;;;;7.23;6.63;;;;;;;27.84;57.48;98183.47;4128690;28;20647;-84
2022/05/11 07:47:03;;;;;;;7.10;6.50;;;;;;;27.93;57.37;98184.88;4142618;28;20728;-84
2022/05/11 07:49:07;;;;;;;8.87;6.50;;;;;;;28.19;58.97;98180.28;4111564;28;20636;-84
2022/05/11 07:51:10;;;;;;;6.90;6.30;;;;;;;28.31;57.64;98181.28;4111423;28;20751;-84
2022/05/11 07:53:14;;;;;;;6.87;6.17;;;;;;;28.50;56.74;98186.56;4128881;28;20643;-84
2022/05/11 07:55:18;;;;;;;7.80;6.87;;;;;;;28.64;55.80;98178.22;4108871;28;20727;-84
2022/05/11 07:59:52;;;;;;;6.40;5.87;;;;;;;28.79;55.97;98183.31;4125842;28;20647;-84
2022/05/11 08:01:55;;;;;;;8.23;6.70;;;;;;;28.86;56.70;98184.13;4133683;28;20630;-85
2022/05/11 08:03:58;;;;;;;6.80;6.20;;;;;;;28.89;56.38;98184.50;4113146;28;20678;-84
2022/05/11 08:06:04;;;;;;;6.63;5.60;;;;;;;29.04;56.69;98185.00;4124882;28;20662;-84
2022/05/11 08:08:09;;;;;;;7.27;6.67;;;;;;;29.14;54.74;98182.69;4126333;28;21210;-85
2022/05/11 08:10:14;;;;;;;6.67;6.07;;;;;;;29.23;56.70;98182.22;4126161;28;20718;-84
2022/05/11 08:12:17;;;;;;;7.27;6.57;;;;;;;29.38;56.86;98180.03;4110008;28;20629;-84
2022/05/11 08:14:21;;;;;;;7.30;6.60;;;;;;;29.45;56.32;98178.09;4127510;28;20654;-84
2022/05/11 08:16:26;;;;;;;6.90;6.20;;;;;;;29.32;54.82;98178.22;4139490;28;20685;-84
2022/05/11 08:18:30;;;;;;;9.17;6.53;;;;;;;29.13;54.93;98173.78;4125193;28;21026;-84
2022/05/11 08:20:35;;;;;;;7.20;6.03;;;;;;;28.91;55.96;98166.28;4143631;28;20646;-84
2022/05/11 08:22:39;;;;;;;7.03;6.43;;;;;;;28.91;55.73;98168.16;4111025;28;20653;-84
2022/05/11 08:24:42;;;;;;;6.80;6.20;;;;;;;28.66;56.24;98160.06;4110586;28;20930;-85
2022/05/11 08:26:47;;;;;;;8.30;6.33;;;;;;;28.76;55.80;98162.25;4107408;28;20632;-86
2022/05/11 08:28:50;;;;;;;7.43;6.37;;;;;;;28.93;56.02;98160.69;4125303;28;20813;-84
2022/05/11 08:33:19;;;;;;;7.20;6.53;;;;;;;29.15;55.41;98162.81;4141160;28;20642;-85
2022/05/11 08:35:43;;;;;;;6.63;5.93;;;;;;;29.25;56.46;98164.00;4124797;28;20635;-85
2022/05/11 08:37:46;;;;;;;6.90;6.07;;;;;;;29.26;55.77;98156.75;4124673;28;20663;-86
2022/05/11 08:39:50;;;;;;;7.17;6.47;;;;;;;29.39;55.75;98162.00;4126981;28;21058;-85
2022/05/11 08:41:53;;;;;;;7.23;6.60;;;;;;;29.53;57.36;98159.81;4141572;28;21224;-85
2022/05/11 08:44:00;;;;;;;9.90;7.03;;;;;;;29.61;55.48;98156.03;4125425;28;20639;-86
2022/05/11 08:46:12;;;;;;;6.87;6.20;;;;;;;29.64;54.77;98142.13;4141291;28;21229;-86
2022/05/11 08:48:22;;;;;;;7.23;6.40;;;;;;;29.57;54.71;98147.56;4143991;28;21236;-86
2022/05/11 08:50:27;;;;;;;6.17;5.60;;;;;;;29.68;57.33;98149.53;4140369;28;20651;-86
2022/05/11 08:52:35;;;;;;;8.77;6.57;;;;;;;29.83;55.13;98147.34;4139752;28;20642;-86
2022/05/11 08:54:45;;;;;;;6.70;6.10;;;;;;;29.91;55.46;98138.13;4126479;28;20643;-86
2022/05/11 08:56:52;;;;;;;6.90;6.20;;;;;;;29.94;55.38;98145.78;4124493;28;20731;-86
2022/05/11 08:58:56;;;;;;;6.97;5.80;;;;;;;29.68;53.47;98144.16;4106195;28;21041;-85
2022/05/11 09:01:00;;;;;;;6.07;5.47;;;;;;;29.68;56.08;98143.31;4124933;28;20670;-86
2022/05/11 09:03:07;;;;;;;9.73;5.97;;;;;;;29.54;55.13;98133.72;4127791;28;20687;-86
2022/05/11 09:05:13;;;;;;;6.50;5.87;;;;;;;29.32;54.06;98132.50;4133040;28;20650;-86
2022/05/11 09:07:16;;;;;;;6.23;5.70;;;;;;;29.22;55.13;98140.19;4123367;28;20705;-85
2022/05/11 09:09:20;;;;;;;7.13;6.00;;;;;;;29.35;52.48;98134.75;4123842;28;21280;-86
2022/05/11 09:11:30;;;;;;;13.00;6.10;;;;;;;29.40;52.80;98134.09;4141731;28;20638;-85
2022/05/11 09:13:36;;;;;;;6.10;5.50;;;;;;;29.42;53.39;98129.31;4125070;28;20624;-85
2022/05/11 09:16:00;;;;;;;6.40;5.80;;;;;;;29.70;54.20;98130.47;4139435;28;21240;-85
2022/05/11 09:18:06;;;;;;;5.77;5.27;;;;;;;29.88;55.32;98125.13;4122396;28;20996;-85
2022/05/11 09:20:14;;;;;;;9.67;5.70;;;;;;;29.82;52.08;98120.66;4144079;28;20688;-85
2022/05/11 09:22:19;;;;;;;6.40;5.30;;;;;;;29.65;52.33;98127.59;4139872;28;20677;-86
2022/05/11 09:24:28;;;;;;;6.27;5.33;;;;;;;29.60;52.94;98131.00;4127403;28;24530;-85
2022/05/11 09:26:33;;;;;;;7.30;5.50;;;;;;;29.68;52.20;98116.41;4124461;28;21245;-85
2022/05/11 09:28:39;;;;;;;5.73;5.23;;;;;;;29.91;54.10;98125.50;4124779;28;20635;-85
2022/05/11 09:30:57;;;;;;;5.93;5.37;;;;;;;30.08;54.15;98126.53;4122843;28;21246;-86
2022/05/11 09:33:14;;;;;;;6.00;5.37;;;;;;;30.04;54.91;98117.25;4125167;28;20739;-86
2022/05/11 09:35:25;;;;;;;5.83;5.30;;;;;;;29.96;52.55;98118.41;4124444;28;20643;-85
2022/05/11 09:37:34;;;;;;;6.40;5.90;;;;;;;30.08;54.06;98113.88;4125570;28;21249;-85
2022/05/11 09:39:51;;;;;;;5.53;5.07;;;;;;;30.13;54.12;98108.66;4110873;28;20639;-85
2022/05/11 09:41:57;;;;;;;9.77;5.23;;;;;;;30.36;53.22;98108.78;4139895;28;21200;-87
2022/05/11 09:44:17;;;;;;;5.43;4.97;;;;;;;30.29;53.46;98116.09;4124941;28;20674;-86
2022/05/11 09:46:24;;;;;;;7.63;5.00;;;;;;;30.10;50.71;98105.56;4131520;28;20630;-86
2022/05/11 09:48:31;;;;;;;5.37;4.87;;;;;;;30.05;51.39;98106.25;4124919;28;20690;-85
2022/05/11 09:50:36;;;;;;;10.97;4.70;;;;;;;29.94;51.15;98103.50;4126540;28;20668;-86
2022/05/11 09:52:39;;;;;;;6.17;5.37;;;;;;;29.80;52.84;98106.56;4108282;28;21272;-84
2022/05/11 09:54:51;;;;;;;5.60;4.93;;;;;;;29.98;52.99;98102.84;4109847;28;20629;-85
2022/05/11 09:56:57;;;;;;;5.33;4.83;;;;;;;30.02;51.95;98104.00;4125822;28;20722;-84
2022/05/11 09:59:17;;;;;;;5.33;4.80;;;;;;;30.16;53.06;98094.75;4140033;28;21268;-84
2022/05/11 10:01:25;;;;;;;6.93;5.97;;;;;;;30.28;51.84;98100.16;4128313;28;20674;-84
2022/05/11 10:03:30;;;;;;;5.90;5.00;;;;;;;30.41;50.14;98097.34;4122869;28;20674;-84
2022/05/11 10:05:39;;;;;;;6.77;5.80;;;;;;;30.18;49.74;98097.22;4126258;28;20686;-83
2022/05/11 10:07:47;;;;;;;5.50;5.00;;;;;;;29.98;51.16;98092.06;4125783;28;20637;-84